Almodovar del Campo, Spain
Current Conditions -  °F | °C
As of 3:00 PM on Thursday 27 Nov 2014 (Local Time) from LEAO Reporting Station
Broken Clouds Broken Clouds  
Wind Chill: 57°   Ceiling: 4100
Heat Index: 57°   Visibility: 6mi
Dew Point: 45°   Wind: 12mph
Humidity: 63%   Direction: 180°S
Pressure: 29.47"   Gusts: NA
Location:  38.71°N, 4.18°W
Report Text: LEAO 271400Z 18010KT 140V220 9999 BKN041 14/07 Q0998
Loading
Personal Weather Stations






























Interactive Weather Map New forecast layout! Learn more

10-Day Weather Forecast

Advertisements
Track Severe Weather on mobile